KPSK/PSK METAR and TAF weather

Enter ICAO airport designator
Station Type Date Time Source
KPSK METAR 2019/05/19 20:15 UTC NOAA

KPSK 192015Z AUTO 18014G21KT 10SM CLR 29/18 A3003 RMK AO2 LTG DSNT N T02850175


Station Type Date Time Source
KPSK Decoded METAR 2019/05/19 20:15 UTC NOAA

Dublin / New River Valley, VA, United States (KPSK) 37-08N 080-41W
May 19, 2019 - 04:15 PM EDT / 2019.05.19 2015 UTC
Wind: from the S (180 degrees) at 16 MPH (14 KT) gusting to 24 MPH (21 KT):0
Visibility: 10 mile(s):0
Sky conditions: clear
Weather: Lightning observed
Temperature: 83.3 F (28.5 C)
Dew Point: 63.5 F (17.5 C)
Relative Humidity: 51%
Pressure (altimeter): 30.03 in. Hg (1016 hPa)
ob: KPSK 192015Z AUTO 18014G21KT 10SM CLR 29/18 A3003 RMK AO2 LTG DSNT N T02850175
cycle: 20

Station Type Date Time Source
KPSK TAF UTC NOAA

Error!

Example: see airport list